createdAt,value
2023-01-03T00:01:52.577Z,78.50
2023-01-03T00:04:22.204Z,83.80
2023-01-03T00:06:52.554Z,76.90
2023-01-03T00:09:23.457Z,61.00
2023-01-03T00:12:13.551Z,74.60
2023-01-03T00:14:43.527Z,47.20
2023-01-03T00:17:12.939Z,48.20
2023-01-03T00:19:44.934Z,49.00
2023-01-03T00:22:15.154Z,39.30
2023-01-03T00:24:48.133Z,32.90
2023-01-03T00:27:17.028Z,33.00
2023-01-03T00:29:45.333Z,30.70
2023-01-03T00:32:14.505Z,30.00
2023-01-03T00:34:46.470Z,26.90
2023-01-03T00:37:15.468Z,32.80
2023-01-03T00:39:44.265Z,32.00
2023-01-03T00:42:12.697Z,31.30
2023-01-03T00:44:41.267Z,30.00
2023-01-03T00:47:09.512Z,29.10
2023-01-03T00:49:39.660Z,26.40
2023-01-03T00:52:07.717Z,27.10
2023-01-03T00:54:36.479Z,33.00
2023-01-03T00:57:04.807Z,33.20
2023-01-03T00:59:33.242Z,27.50
2023-01-03T01:02:01.859Z,28.50
2023-01-03T01:04:31.842Z,24.40
2023-01-03T01:07:03.303Z,22.30
2023-01-03T01:09:35.373Z,24.20
2023-01-03T01:12:05.438Z,26.10
2023-01-03T01:14:33.980Z,29.30
2023-01-03T01:17:05.151Z,39.90
2023-01-03T01:19:42.570Z,24.50
2023-01-03T01:22:12.328Z,33.10
2023-01-03T01:24:41.320Z,25.60
2023-01-03T01:27:09.995Z,25.60
2023-01-03T01:29:39.305Z,34.20
2023-01-03T01:32:07.792Z,442.60
2023-01-03T01:34:36.481Z,65.30
2023-01-03T01:37:04.600Z,125.60
2023-01-03T01:39:33.619Z,120.70
2023-01-03T01:42:28.781Z,209.20
2023-01-03T01:45:04.585Z,56.20
2023-01-03T01:47:48.800Z,53.10
2023-01-03T01:50:40.762Z,25.70
2023-01-03T01:53:12.916Z,47.10
2023-01-03T01:55:46.782Z,31.10
2023-01-03T01:58:16.588Z,24.00
2023-01-03T02:00:45.639Z,34.80
2023-01-03T02:03:14.073Z,25.30
2023-01-03T02:05:47.403Z,25.90
2023-01-03T02:08:16.354Z,26.40
2023-01-03T02:10:56.815Z,27.10
2023-01-03T02:13:41.660Z,23.50
2023-01-03T02:16:31.451Z,28.50
2023-01-03T02:19:37.838Z,24.30
2023-01-03T02:22:24.550Z,27.80
2023-01-03T02:25:23.650Z,26.50
2023-01-03T02:28:24.292Z,29.10
2023-01-03T02:31:07.854Z,31.80
2023-01-03T02:36:24.656Z,28.80
2023-01-03T02:38:58.988Z,32.90
2023-01-03T02:41:45.703Z,44.10
2023-01-03T02:44:23.281Z,27.20
2023-01-03T02:46:58.771Z,47.90
2023-01-03T02:49:30.382Z,49.40
2023-01-03T02:52:04.182Z,29.70
2023-01-03T02:57:12.812Z,34.90
2023-01-03T02:59:54.026Z,25.40
2023-01-03T03:02:29.374Z,28.40
2023-01-03T03:04:59.006Z,33.70
2023-01-03T03:07:32.817Z,33.80
2023-01-03T03:10:19.548Z,43.10
2023-01-03T03:13:12.153Z,68.30
2023-01-03T03:16:16.244Z,44.70
2023-01-03T03:19:02.254Z,37.90
2023-01-03T03:21:54.623Z,29.10
2023-01-03T03:24:48.022Z,49.70
2023-01-03T03:27:40.509Z,27.00
2023-01-03T03:30:14.529Z,40.30
2023-01-03T03:32:46.519Z,32.60
2023-01-03T03:35:18.659Z,21.00
2023-01-03T03:37:50.408Z,35.90
2023-01-03T03:40:37.334Z,38.20
2023-01-03T03:43:34.893Z,40.70
2023-01-03T03:46:28.070Z,37.00
2023-01-03T03:49:38.128Z,33.30
2023-01-03T03:52:16.526Z,27.20
2023-01-03T03:54:53.751Z,27.80
2023-01-03T03:57:37.559Z,29.90
2023-01-03T04:00:15.546Z,29.50
2023-01-03T04:02:47.285Z,43.80
2023-01-03T04:05:20.582Z,49.70
2023-01-03T04:07:48.960Z,39.70
2023-01-03T04:10:20.590Z,47.90
2023-01-03T04:12:50.720Z,42.50
2023-01-03T04:15:19.061Z,41.00
2023-01-03T04:17:47.343Z,44.30
2023-01-03T04:20:15.938Z,41.70
2023-01-03T04:22:44.205Z,41.10
2023-01-03T04:25:12.780Z,40.60
2023-01-03T04:27:41.895Z,43.10
2023-01-03T04:30:11.621Z,39.60
2023-01-03T04:32:40.276Z,35.00
2023-01-03T04:35:09.188Z,35.10
2023-01-03T04:37:37.554Z,43.30
2023-01-03T04:40:06.637Z,46.40
2023-01-03T04:42:53.441Z,46.10
2023-01-03T04:45:21.533Z,42.30
2023-01-03T04:47:50.039Z,60.00
2023-01-03T04:50:18.652Z,52.00
2023-01-03T04:52:46.984Z,56.70
2023-01-03T04:55:15.062Z,45.10
2023-01-03T04:57:43.106Z,44.10
2023-01-03T05:00:12.335Z,47.80
2023-01-03T05:02:40.680Z,66.30
2023-01-03T05:05:09.317Z,68.00
2023-01-03T05:07:37.886Z,62.80
2023-01-03T05:10:06.731Z,57.40
2023-01-03T05:12:34.960Z,57.20
2023-01-03T05:15:03.434Z,70.20
2023-01-03T05:17:31.764Z,36.20
2023-01-03T05:20:18.932Z,52.20
2023-01-03T05:23:05.642Z,51.80
2023-01-03T05:25:52.248Z,41.20
2023-01-03T05:28:23.272Z,41.40
2023-01-03T05:30:51.491Z,46.10
2023-01-03T05:33:19.643Z,41.50
2023-01-03T05:35:48.470Z,40.00
2023-01-03T05:38:17.650Z,40.00
2023-01-03T05:40:46.012Z,34.90
2023-01-03T05:43:14.140Z,46.50
2023-01-03T05:45:42.295Z,46.80
2023-01-03T05:48:10.861Z,44.50
2023-01-03T05:50:38.949Z,46.90
2023-01-03T05:53:07.718Z,58.10
2023-01-03T05:55:37.654Z,86.40
2023-01-03T05:58:06.662Z,122.30
2023-01-03T06:00:35.128Z,117.70
2023-01-03T06:03:03.830Z,127.40
2023-01-03T06:05:32.179Z,95.00
2023-01-03T06:08:02.259Z,85.00
2023-01-03T06:10:30.637Z,74.30
2023-01-03T06:12:59.629Z,58.90
2023-01-03T06:15:27.959Z,66.10
2023-01-03T06:18:02.374Z,91.40
2023-01-03T06:20:30.762Z,122.60
2023-01-03T06:23:00.199Z,145.10
2023-01-03T06:25:28.281Z,191.40
2023-01-03T06:27:56.410Z,193.70
2023-01-03T06:30:24.881Z,167.90
2023-01-03T06:32:53.281Z,167.90
2023-01-03T06:35:21.444Z,228.40
2023-01-03T06:37:49.466Z,215.00
2023-01-03T06:40:19.560Z,202.90
2023-01-03T06:42:47.850Z,176.60
2023-01-03T06:45:38.595Z,179.60
2023-01-03T06:48:28.130Z,172.10
2023-01-03T06:51:35.106Z,322.60
2023-01-03T06:54:03.432Z,347.70
2023-01-03T06:56:31.743Z,335.40
2023-01-03T06:59:00.338Z,372.30
2023-01-03T07:01:28.801Z,265.50
2023-01-03T07:03:57.041Z,266.30
2023-01-03T07:06:25.812Z,181.80
2023-01-03T07:08:53.940Z,214.70
2023-01-03T07:11:25.655Z,182.30
2023-01-03T07:13:59.845Z,206.50
2023-01-03T07:16:34.727Z,233.20
2023-01-03T07:19:05.292Z,289.90
2023-01-03T07:21:35.245Z,236.70
2023-01-03T07:24:05.946Z,219.50
2023-01-03T07:26:35.510Z,142.40
2023-01-03T07:29:07.333Z,138.90
2023-01-03T07:31:38.777Z,115.40
2023-01-03T07:34:07.340Z,112.30
2023-01-03T07:36:35.957Z,149.80
2023-01-03T07:39:04.484Z,101.50
2023-01-03T07:41:51.634Z,95.50
2023-01-03T07:44:20.033Z,89.60
2023-01-03T07:46:48.514Z,115.70
2023-01-03T07:49:16.797Z,127.40
2023-01-03T07:51:45.744Z,124.40
2023-01-03T07:54:14.226Z,129.50
2023-01-03T07:56:42.751Z,117.20
2023-01-03T07:59:12.101Z,108.60
2023-01-03T08:01:40.512Z,113.00
2023-01-03T08:04:08.553Z,108.70
2023-01-03T08:06:36.612Z,124.30
2023-01-03T08:09:23.340Z,126.70
2023-01-03T08:12:10.286Z,132.60
2023-01-03T08:14:38.584Z,301.90
2023-01-03T08:17:07.193Z,192.80
2023-01-03T08:24:11.114Z,188.40
2023-01-03T08:26:39.311Z,162.20
2023-01-03T08:29:07.914Z,170.80
2023-01-03T08:31:40.534Z,166.40
2023-01-03T08:34:16.981Z,136.70
2023-01-03T08:36:52.802Z,107.70
2023-01-03T08:39:25.800Z,87.20
2023-01-03T08:42:00.610Z,201.40
2023-01-03T08:44:28.711Z,110.70
2023-01-03T08:47:01.083Z,92.70
2023-01-03T08:49:30.376Z,70.60
2023-01-03T08:51:58.398Z,69.30
2023-01-03T08:54:26.485Z,90.50
2023-01-03T08:56:55.185Z,89.70
2023-01-03T08:59:23.618Z,77.20
2023-01-03T09:01:51.795Z,86.50
2023-01-03T09:04:20.152Z,66.90
2023-01-03T09:06:49.374Z,36.40
2023-01-03T09:09:17.737Z,24.10
2023-01-03T09:11:45.879Z,19.10
2023-01-03T09:14:14.500Z,16.60
2023-01-03T09:16:48.561Z,17.10
2023-01-03T09:19:17.528Z,14.00
2023-01-03T09:21:46.167Z,12.20
2023-01-03T09:24:14.271Z,14.20
2023-01-03T09:26:42.518Z,13.80
2023-01-03T09:29:10.532Z,18.60
2023-01-03T09:31:40.202Z,29.40
2023-01-03T09:34:08.554Z,26.40
2023-01-03T09:36:38.713Z,19.00
2023-01-03T09:39:07.202Z,12.80
2023-01-03T09:41:35.988Z,11.60
2023-01-03T09:44:07.008Z,13.30
2023-01-03T09:46:36.082Z,18.20
2023-01-03T09:49:07.289Z,18.80
2023-01-03T09:52:00.323Z,16.70
2023-01-03T09:54:58.043Z,15.80
2023-01-03T09:57:53.277Z,17.10
2023-01-03T10:00:59.156Z,17.40
2023-01-03T10:03:51.656Z,13.90
2023-01-03T10:06:33.089Z,14.30
2023-01-03T10:09:23.856Z,15.20
2023-01-03T10:12:12.283Z,15.90
2023-01-03T10:14:50.718Z,14.30
2023-01-03T10:17:41.085Z,17.10
2023-01-03T10:20:33.245Z,16.60
2023-01-03T10:23:06.915Z,24.80
2023-01-03T10:25:37.749Z,24.90
2023-01-03T10:28:24.152Z,15.80
2023-01-03T10:31:37.094Z,20.70
2023-01-03T10:34:06.208Z,23.40
2023-01-03T10:36:34.349Z,24.60
2023-01-03T10:39:05.509Z,26.40
2023-01-03T10:41:44.045Z,29.60
2023-01-03T10:53:15.935Z,31.20
2023-01-03T10:55:47.696Z,31.20
2023-01-03T10:58:22.446Z,32.80
2023-01-03T11:00:52.868Z,25.90
2023-01-03T11:03:25.997Z,26.70
2023-01-03T11:08:41.650Z,26.40
2023-01-03T11:11:28.770Z,33.10
2023-01-03T11:18:20.960Z,23.50
2023-01-03T11:22:05.215Z,19.90
2023-01-03T11:24:55.483Z,21.60
2023-01-03T11:27:26.785Z,27.10
2023-01-03T11:30:20.845Z,35.30
2023-01-03T11:32:56.375Z,23.10
2023-01-03T11:35:37.489Z,29.20
2023-01-03T11:38:19.866Z,27.40
2023-01-03T11:41:08.543Z,21.40
2023-01-03T11:44:05.467Z,17.70
2023-01-03T11:47:05.879Z,20.00
2023-01-03T11:50:07.358Z,17.40
2023-01-03T11:52:54.981Z,19.70
2023-01-03T11:55:42.457Z,17.50
2023-01-03T11:58:29.948Z,17.00
2023-01-03T12:01:00.669Z,18.00
2023-01-03T12:03:51.771Z,16.10
2023-01-03T12:06:36.044Z,15.80
2023-01-03T12:09:46.415Z,13.30
2023-01-03T12:12:35.686Z,12.80
2023-01-03T12:15:36.830Z,12.90
2023-01-03T12:18:21.404Z,13.20
2023-01-03T12:20:57.558Z,12.40
2023-01-03T12:23:31.820Z,15.30
2023-01-03T12:26:05.613Z,15.50
2023-01-03T12:28:49.745Z,14.30
2023-01-03T12:31:29.498Z,15.40
2023-01-03T12:34:07.203Z,17.50
2023-01-03T12:36:35.360Z,24.60
2023-01-03T12:39:33.565Z,15.60
2023-01-03T12:42:17.542Z,13.80
2023-01-03T12:44:48.457Z,15.80
2023-01-03T12:47:38.922Z,16.20
2023-01-03T12:50:33.236Z,16.20
2023-01-03T12:55:49.639Z,26.30
2023-01-03T12:58:28.916Z,17.60
2023-01-03T13:01:08.840Z,16.80
2023-01-03T13:03:45.767Z,21.70
2023-01-03T13:06:20.944Z,26.50
2023-01-03T13:08:57.686Z,15.20
2023-01-03T13:11:35.223Z,14.10
2023-01-03T13:14:25.226Z,19.10
2023-01-03T13:17:15.306Z,16.30
2023-01-03T13:20:28.239Z,13.70
2023-01-03T13:23:00.168Z,15.80
2023-01-03T13:25:33.057Z,12.90
2023-01-03T13:28:25.003Z,10.80
2023-01-03T13:31:19.051Z,14.10
2023-01-03T13:34:11.567Z,14.70
2023-01-03T13:37:08.079Z,15.70
2023-01-03T13:39:51.508Z,18.10
2023-01-03T13:42:27.405Z,25.10
2023-01-03T13:45:11.228Z,16.30
2023-01-03T13:47:47.564Z,20.50
2023-01-03T13:50:20.971Z,19.70
2023-01-03T13:53:25.401Z,18.20
2023-01-03T13:56:22.466Z,19.40
2023-01-03T13:58:53.863Z,24.80
2023-01-03T14:01:36.449Z,16.70
2023-01-03T14:04:35.526Z,19.90
2023-01-03T14:07:39.027Z,23.30
2023-01-03T14:10:11.203Z,29.00
2023-01-03T14:12:42.451Z,36.00
2023-01-03T14:15:25.256Z,53.10
2023-01-03T14:18:03.234Z,43.90
2023-01-03T14:20:35.960Z,75.70
2023-01-03T14:23:31.844Z,116.50
2023-01-03T14:26:06.718Z,85.40
2023-01-03T14:28:34.919Z,47.00
2023-01-03T14:31:06.201Z,38.20
2023-01-03T14:33:46.912Z,70.60
2023-01-03T14:36:17.890Z,50.40
2023-01-03T14:38:52.419Z,43.80
2023-01-03T14:41:34.084Z,64.20
2023-01-03T14:44:11.454Z,63.80
2023-01-03T14:46:48.484Z,41.20
2023-01-03T14:49:32.894Z,37.00
2023-01-03T14:52:15.201Z,36.80
2023-01-03T14:54:47.108Z,37.40
2023-01-03T14:57:24.009Z,39.40
2023-01-03T14:59:56.418Z,51.20
2023-01-03T15:02:26.142Z,58.30
2023-01-03T15:04:58.037Z,66.80
2023-01-03T15:07:47.174Z,82.60
2023-01-03T15:10:23.116Z,86.30
2023-01-03T15:13:00.651Z,52.10
2023-01-03T15:15:38.467Z,101.80
2023-01-03T15:18:10.015Z,38.60
2023-01-03T15:20:42.860Z,25.30
2023-01-03T15:23:29.780Z,26.40
2023-01-03T15:26:00.163Z,30.60
2023-01-03T15:28:31.472Z,48.00
2023-01-03T15:31:22.631Z,49.20
2023-01-03T15:34:15.121Z,37.80
2023-01-03T15:36:58.829Z,39.60
2023-01-03T15:39:38.188Z,36.70
2023-01-03T15:42:47.799Z,79.60
2023-01-03T15:45:20.006Z,78.10
2023-01-03T15:47:50.604Z,56.30
2023-01-03T15:50:20.067Z,54.20
2023-01-03T15:52:49.555Z,43.00
2023-01-03T15:55:18.239Z,43.70
2023-01-03T15:57:51.551Z,35.40
2023-01-03T16:00:23.271Z,38.30
2023-01-03T16:02:51.889Z,39.30
2023-01-03T16:05:22.982Z,29.70
2023-01-03T16:07:51.943Z,50.50
2023-01-03T16:10:21.960Z,55.50
2023-01-03T16:12:50.230Z,78.80
2023-01-03T16:15:21.614Z,79.70
2023-01-03T16:17:51.275Z,71.00
2023-01-03T16:20:19.976Z,77.90
2023-01-03T16:23:00.517Z,57.10
